SBPK/PET METAR and TAF weather

Enter ICAO airport designator
Station Type Date Time Source
SBPK METAR 2020/09/13 19:00 UTC NOAA

SBPK 131900Z 03012KT 2500 -TSRA BR SCT004 FEW045CB OVC100 18/18 Q1012


Station Type Date Time Source
SBPK Decoded METAR 2020/09/13 19:00 UTC NOAA

Pelotas, Brazil (SBPK) 31-52S 052-21W 13M
Sep 13, 2020 - 03:00 PM EDT / 2020.09.13 1900 UTC
Wind: from the NNE (030 degrees) at 14 MPH (12 KT):0
Visibility: 1 mile(s):0
Sky conditions: overcast
Weather: light rain with thunder; mist; Cumulonimbus clouds observed
Temperature: 64 F (18 C)
Dew Point: 64 F (18 C)
Relative Humidity: 100%
Pressure (altimeter): 29.88 in. Hg (1012 hPa)
ob: SBPK 131900Z 03012KT 2500 -TSRA BR SCT004 FEW045CB OVC100 18/18 Q1012
cycle: 19

Station Type Date Time Source
SBPK TAF 2020/09/18 12:58 UTC NOAA

TAF SBPK 181000Z 1812/1912 27004KT CAVOK TX25/1818Z TN13/1909Z
BECMG 1821/1822 17005KT
BECMG 1900/1902 18006KT
RMK PEC

Example: see airport list